Latest Weather Observations for Tunnack

IDT60801

Issued at 3:35 pm EDT Wednesday 22 October 2014 (issued every 30 minutes, with the page automatically refreshed every 10 minutes)

About weather observations | Map of weather stations | Latest weather observations for TAS | Other Formats
Station Details ID: 094195 Name: TUNNACK FIRE STATION Lat: -42.45 Lon: 147.46 Height: 461.5 m
Data from the previous 72 hours. | See also: Recent months at Tunnack
Date/Time
EDT
Temp
°C
App
Temp
°C
Dew
Point
Rel
Hum
%
Delta-T
°C
Wind Press
QNH
hPa
Press
MSL
hPa
Rain
since 9 am
mm
Dir
 
Spd
km/h
Gust
km/h
Spd
kts
Gust
kts
22/03:30pm 21.4 17.6 9.9 48 6.3 N 20 28 11 15 1015.3 1015.6 0.0
22/03:00pm 21.2 17.0 11.0 52 5.7 N 24 30 13 16 1015.4 1015.7 0.0
22/02:30pm 20.3 16.2 8.6 47 6.3 N 20 28 11 15 1015.5 1015.8 0.0
22/02:00pm 19.9 15.8 8.6 48 6.0 N 20 30 11 16 1015.9 1016.2 0.0
22/01:30pm 19.5 15.4 8.5 49 5.9 N 20 33 11 18 1016.5 1016.8 0.0
22/01:00pm 18.7 13.3 8.1 50 5.6 N 26 35 14 19 1016.8 1017.1 0.0
22/12:30pm 18.5 13.0 9.0 54 5.1 N 28 37 15 20 1017.4 1017.7 0.0
22/12:00pm 17.1 10.9 7.7 54 4.8 N 30 41 16 22 1017.8 1018.1 0.0
22/11:30am 16.4 10.2 7.9 57 4.4 N 30 37 16 20 1018.5 1018.8 0.0
22/11:00am 14.7 9.6 7.7 63 3.6 N 24 35 13 19 1018.9 1019.3 0.0
22/10:30am 13.5 7.1 7.1 65 3.2 N 30 43 16 23 1019.5 1019.8 0.0
22/10:00am 12.4 8.2 7.3 71 2.5 N 19 30 10 16 1019.9 1020.2 0.0
22/09:30am 12.3 7.0 6.6 68 2.8 N 24 41 13 22 1019.9 1020.2 0.0
22/09:00am 10.4 5.1 6.9 79 1.7 N 24 37 13 20 1020.0 1020.3 0.0
22/08:40am 11.0 5.1 7.5 79 1.7 N 28 46 15 25 1020.1 1020.4 0.0
22/08:30am 10.2 3.7 6.5 78 1.8 N 30 43 16 23 1020.2 1020.5 0.0
22/08:12am 9.8 3.7 6.7 81 1.5 N 28 46 15 25 1020.5 1020.8 0.0
22/08:00am 9.2 3.0 6.3 82 1.4 N 28 44 15 24 1020.5 1020.8 0.0
22/07:47am 8.9 2.7 6.2 83 1.3 N 28 46 15 25 1020.5 1020.8 0.0
22/07:30am 8.5 3.0 6.1 85 1.1 N 24 39 13 21 1020.6 1021.0 0.0
22/07:00am 8.0 3.3 6.0 87 0.9 N 20 37 11 20 1020.7 1021.1 0.0
22/06:30am 7.3 2.5 5.6 89 0.8 N 20 30 11 16 1021.2 1021.6 0.0
22/06:00am 7.2 1.6 5.3 88 0.9 N 24 33 13 18 1021.2 1021.6 0.0
22/05:30am 7.4 1.4 5.5 88 0.9 N 26 33 14 18 1021.4 1021.8 0.0
22/05:00am 7.1 2.3 5.6 90 0.7 N 20 30 11 16 1021.9 1022.2 0.0
22/04:30am 6.4 1.5 4.9 90 0.7 N 20 30 11 16 1022.3 1022.6 0.0
22/04:00am 6.6 1.7 4.9 89 0.8 N 20 30 11 16 1022.8 1023.2 0.0
22/03:30am 6.8 2.1 5.1 89 0.8 N 19 30 10 16 1023.3 1023.7 0.0
22/03:00am 6.7 2.3 4.9 88 0.8 N 17 26 9 14 1024.0 1024.3 0.0
22/02:30am 6.9 2.0 4.9 87 0.9 N 20 32 11 17 1024.3 1024.7 0.0
22/02:00am 6.9 2.5 4.7 86 1.0 NNE 17 28 9 15 1024.9 1025.3 0.0
22/01:30am 7.5 2.3 5.3 86 1.0 N 22 33 12 18 1025.1 1025.5 0.0
22/01:00am 7.6 3.3 5.2 85 1.1 N 17 28 9 15 1025.7 1026.1 0.0
22/12:30am 7.8 3.9 5.3 84 1.1 N 15 24 8 13 1025.9 1026.3 0.0
22/12:00am 8.4 2.9 5.9 84 1.2 N 24 35 13 19 1026.4 1026.8 0.0
 
Date/Time
EDT
Temp
°C
App
Temp
°C
Dew
Point
Rel
Hum
%
Delta-T
°C
Wind Press
QNH
hPa
Press
MSL
hPa
Rain
since 9 am
mm
Dir
 
Spd
km/h
Gust
km/h
Spd
kts
Gust
kts
21/11:30pm 8.6 4.4 5.9 83 1.3 N 17 24 9 13 1026.7 1027.1 0.0
21/11:00pm 8.7 5.2 5.4 80 1.5 N 13 19 7 10 1027.0 1027.4 0.0
21/10:30pm 9.7 5.1 5.7 76 1.9 N 19 28 10 15 1027.0 1027.4 0.0
21/10:00pm 10.3 6.1 5.7 73 2.2 N 17 26 9 14 1027.1 1027.5 0.0
21/09:30pm 10.5 6.6 5.3 70 2.4 NNE 15 22 8 12 1027.4 1027.8 0.0
21/09:00pm 11.1 7.5 5.0 66 2.8 NE 13 20 7 11 1027.4 1027.8 0.0
21/08:30pm 11.7 6.4 5.1 64 3.1 NNE 22 28 12 15 1027.1 1027.5 0.0
21/08:00pm 12.1 7.4 5.0 62 3.3 NNE 19 26 10 14 1027.3 1027.7 0.0
21/07:30pm 12.6 8.7 5.5 62 3.4 N 15 22 8 12 1027.4 1027.8 0.0
21/07:00pm 13.6 9.0 5.5 58 3.9 NNE 19 28 10 15 1027.5 1027.9 0.0
21/06:30pm 14.6 10.0 5.7 55 4.3 N 19 28 10 15 1027.6 1028.0 0.0
21/06:00pm 15.5 10.7 5.7 52 4.8 N 20 30 11 16 1027.6 1028.0 0.0
21/05:30pm 15.8 9.6 4.5 47 5.4 N 26 37 14 20 1027.6 1028.0 0.0
21/05:00pm 16.2 10.8 4.3 45 5.7 N 22 32 12 17 1027.9 1028.4 0.0
21/04:30pm 16.3 10.7 3.7 43 6.0 N 22 32 12 17 1028.2 1028.7 0.0
21/04:00pm 16.5 11.0 3.9 43 6.0 N 22 35 12 19 1028.6 1029.0 0.0
21/03:30pm 16.6 10.8 4.6 45 5.8 NNE 24 32 13 17 1029.1 1029.5 0.0
21/03:00pm 16.3 11.3 4.7 46 5.6 NNE 20 32 11 17 1029.4 1029.8 0.0
21/02:30pm 15.2 9.3 4.0 47 5.3 NNE 24 37 13 20 1030.1 1030.6 0.0
21/02:00pm 15.2 9.8 4.3 48 5.1 N 22 33 12 18 1030.8 1031.2 0.0
21/01:30pm 14.9 9.3 5.4 53 4.6 NNE 24 37 13 20 1031.1 1031.5 0.0
21/01:00pm 14.2 9.4 5.8 57 4.1 N 20 28 11 15 1031.4 1031.8 0.0
21/12:30pm 13.7 8.8 5.3 57 4.0 N 20 32 11 17 1031.7 1032.2 0.0
21/12:00pm 12.6 7.7 5.1 60 3.5 NNE 20 32 11 17 1031.9 1032.4 0.0
21/11:30am 11.3 5.6 3.1 57 3.7 NNE 22 32 12 17 1032.3 1032.8 0.0
21/11:00am 11.6 6.8 4.8 63 3.2 N 19 28 10 15 1032.6 1033.1 0.0
21/10:30am 10.5 5.4 4.2 65 2.9 N 20 30 11 16 1032.9 1033.4 0.0
21/10:00am 9.2 3.2 3.6 68 2.5 N 24 33 13 18 1032.9 1033.4 0.0
21/09:30am 8.7 2.0 3.9 72 2.1 N 28 35 15 19 1033.3 1033.7 0.0
21/09:00am 8.0 2.3 3.1 71 2.1 N 22 35 12 19 1033.3 1033.7 0.0
21/08:30am 7.6 3.8 3.8 77 1.7 N 13 17 7 9 1033.2 1033.6 0.0
21/08:00am 5.9 3.1 3.4 84 1.1 NNE 7 9 4 5 1033.2 1033.6 0.0
21/07:30am 3.4 0.5 2.5 94 0.4 NE 7 9 4 5 1033.1 1033.5 0.0
21/07:00am 1.2 -2.0 0.9 98 0.1 NE 7 11 4 6 1032.9 1033.4 0.0
21/06:30am 1.0 -2.2 0.9 99 0.0 NE 7 9 4 5 1032.9 1033.4 0.0
21/06:00am 1.0 -2.6 0.9 99 0.0 NE 9 11 5 6 1032.7 1033.2 0.0
21/05:30am 1.7 -1.4 1.6 99 0.0 NE 7 11 4 6 1032.4 1032.9 0.0
21/05:00am 0.6 -2.7 0.3 98 0.1 NE 7 11 4 6 1032.2 1032.7 0.0
21/04:30am 1.5 -1.6 1.2 98 0.1 N 7 11 4 6 1032.3 1032.8 0.0
21/04:00am 1.9 -1.2 1.5 97 0.2 N 7 9 4 5 1032.2 1032.7 0.0
21/03:30am 2.2 -1.0 0.9 91 0.5 NE 7 7 4 4 1032.3 1032.8 0.0
21/03:00am 2.6 -0.9 1.1 90 0.6 ENE 9 11 5 6 1032.2 1032.7 0.0
21/02:30am 2.2 -0.9 1.6 96 0.2 NNE 7 13 4 7 1032.6 1033.1 0.0
21/02:00am 2.1 -1.0 1.2 94 0.3 NNE 7 9 4 5 1032.6 1033.1 0.0
21/01:30am 2.6 -0.8 1.7 94 0.4 NNE 9 11 5 6 1032.9 1033.4 0.0
21/01:00am 2.3 -1.6 1.1 92 0.5 NNE 11 13 6 7 1033.4 1033.8 0.0
21/12:30am 3.0 -0.1 1.5 90 0.6 N 7 9 4 5 1033.8 1034.3 0.0
21/12:00am 4.0 1.1 2.4 89 0.7 ENE 7 13 4 7 1033.8 1034.3 0.0
 
Date/Time
EDT
Temp
°C
App
Temp
°C
Dew
Point
Rel
Hum
%
Delta-T
°C
Wind Press
QNH
hPa
Press
MSL
hPa
Rain
since 9 am
mm
Dir
 
Spd
km/h
Gust
km/h
Spd
kts
Gust
kts
20/11:30pm 4.1 1.2 2.6 90 0.6 NE 7 11 4 6 1034.1 1034.6 0.0
20/11:00pm 4.3 1.4 2.5 88 0.7 ENE 7 11 4 6 1034.5 1035.0 0.0
20/10:30pm 4.6 1.7 2.5 86 0.9 ENE 7 13 4 7 1034.7 1035.2 0.0
20/10:00pm 4.9 1.6 2.6 85 1.0 ENE 9 15 5 8 1034.8 1035.3 0.0
20/09:30pm 4.9 1.2 2.3 83 1.1 E 11 15 6 8 1034.7 1035.2 0.0
20/09:00pm 5.4 1.3 2.1 79 1.4 E 13 17 7 9 1034.4 1034.9 0.0
20/08:30pm 5.9 1.7 1.8 75 1.7 E 13 19 7 10 1034.0 1034.5 0.0
20/08:00pm 6.4 2.2 1.7 72 1.9 E 13 20 7 11 1033.5 1034.0 0.0
20/07:30pm 7.6 3.4 1.7 66 2.5 E 13 20 7 11 1033.2 1033.6 0.0
20/07:00pm 8.5 4.3 1.9 63 2.8 ENE 13 20 7 11 1032.7 1033.2 0.0
20/06:30pm 9.4 4.8 1.6 58 3.3 ENE 15 20 8 11 1032.4 1032.9 0.0
20/06:00pm 10.7 6.6 2.3 56 3.7 ENE 13 20 7 11 1032.3 1032.8 0.0
20/05:30pm 11.4 6.3 2.9 56 3.8 NNE 19 28 10 15 1032.0 1032.5 0.0
20/05:00pm 13.1 10.5 1.1 44 5.2 NW 4 17 2 9 1031.9 1032.4 0.0
20/04:30pm 12.1 8.6 -1.1 40 5.4 NW 7 15 4 8 1031.8 1032.3 0.0
20/04:00pm 12.6 9.3 0.4 43 5.2 NNW 7 9 4 5 1032.0 1032.5 0.0
20/03:30pm 12.5 9.4 1.2 46 4.9 NNW 7 11 4 6 1032.1 1032.6 0.0
20/03:00pm 11.7 8.3 -0.8 42 5.1 S 7 11 4 6 1032.3 1032.8 0.0
20/02:30pm 11.6 8.1 1.3 49 4.5 NNE 9 15 5 8 1032.4 1032.9 0.0
20/02:00pm 10.5 6.6 -1.2 44 4.7 SSW 9 13 5 7 1032.6 1033.1 0.0
20/01:30pm 10.9 7.0 0.9 50 4.3 W 11 17 6 9 1032.8 1033.3 0.0
20/01:00pm 10.8 7.3 1.4 52 4.0 WNW 9 17 5 9 1032.8 1033.3 0.0
20/12:30pm 10.1 6.1 0.7 52 4.0 SW 11 19 6 10 1033.1 1033.5 0.0
20/12:00pm 9.0 4.4 -1.4 48 4.1 S 13 20 7 11 1033.2 1033.6 0.0
20/11:30am 8.7 4.7 0.2 55 3.5 SW 11 20 6 11 1033.2 1033.6 0.0
20/11:00am 8.0 3.2 0.3 58 3.1 SSW 15 22 8 12 1033.3 1033.7 0.0
20/10:30am 7.8 3.4 0.3 59 3.1 S 13 24 7 13 1033.5 1034.0 0.0
20/10:00am 6.4 0.7 -0.8 60 2.8 SSW 19 28 10 15 1033.3 1033.7 0.0
20/09:30am 7.1 3.2 1.0 65 2.5 S 11 20 6 11 1032.7 1033.2 0.0
20/09:00am 6.0 1.4 -0.7 62 2.6 SSW 13 22 7 12 1032.2 1032.7 1.0
20/08:30am 5.0 1.3 -0.2 69 2.0 SSW 9 13 5 7 1031.9 1032.4 1.0
20/08:00am 2.3 -0.9 -0.6 81 1.1 NW 6 7 3 4 1031.8 1032.3 1.0
20/07:30am 0.6 -1.4 -0.1 95 0.3 CALM 0 0 0 0 1031.5 1031.9 1.0
20/07:00am -1.7 -5.1 -2.0 98 0.0 E 6 7 3 4 1031.2 1031.6 1.0
20/06:30am -2.5 -4.9 -2.8 98 0.0 CALM 0 7 0 4 1031.0 1031.4 1.0
20/06:00am -2.9 -6.7 -3.4 96 0.0 N 7 11 4 6 1030.4 1030.9 1.0
20/05:30am -2.1 -5.6 -3.1 93 0.2 ESE 6 9 3 5 1029.6 1030.0 1.0
20/05:00am -0.5 -3.6 -2.4 87 0.6 WSW 4 9 2 5 1029.6 1030.0 1.0
20/04:30am 0.3 -3.6 -1.8 86 0.8 NW 9 11 5 6 1029.2 1029.6 1.0
20/04:00am 0.8 -2.8 -2.4 79 1.2 W 7 9 4 5 1028.9 1029.3 1.0
20/03:30am 1.3 -2.7 -2.6 75 1.4 W 9 13 5 7 1028.2 1028.7 1.0
20/03:00am 2.0 -2.7 -2.1 74 1.5 WSW 13 17 7 9 1027.7 1028.1 1.0
20/02:30am 2.3 -3.1 -1.5 76 1.4 WSW 17 28 9 15 1027.5 1027.9 1.0
20/02:00am 2.0 -1.9 -1.4 78 1.2 SW 9 13 5 7 1027.2 1027.6 1.0
20/01:30am 2.5 -1.7 -0.9 78 1.3 SW 11 20 6 11 1026.9 1027.3 1.0
20/01:00am 2.4 -1.7 -0.4 82 1.0 SW 11 17 6 9 1026.8 1027.2 1.0
20/12:30am 2.4 -1.3 0.0 84 0.9 SSW 9 17 5 9 1026.5 1026.9 1.0
20/12:00am 2.6 -1.1 -0.2 82 1.1 WNW 9 13 5 7 1025.8 1026.2 1.0
 
Date/Time
EDT
Temp
°C
App
Temp
°C
Dew
Point
Rel
Hum
%
Delta-T
°C
Wind Press
QNH
hPa
Press
MSL
hPa
Rain
since 9 am
mm
Dir
 
Spd
km/h
Gust
km/h
Spd
kts
Gust
kts
19/11:30pm 2.8 -1.3 -0.1 81 1.1 W 11 17 6 9 1025.6 1026.0 1.0
19/11:00pm 3.4 -0.2 0.3 80 1.2 SW 9 15 5 8 1025.2 1025.6 1.0
19/10:30pm 3.9 -0.8 0.6 79 1.3 SW 15 24 8 13 1024.5 1024.9 1.0
19/10:00pm 3.9 -3.1 2.1 88 0.7 WSW 28 43 15 23 1023.7 1024.1 1.0
19/09:51pm 4.3 -2.5 3.3 93 0.4 WSW 28 44 15 24 1023.9 1024.2 0.8
19/09:30pm 5.1 0.3 4.5 96 0.3 SW 19 26 10 14 1023.1 1023.5 0.4
19/09:00pm 5.8 0.9 4.0 88 0.8 WSW 19 28 10 15 1022.4 1022.8 0.2
19/08:30pm 6.1 0.9 3.6 84 1.1 SW 20 30 11 16 1021.9 1022.2 0.2
19/08:00pm 6.4 1.5 4.1 85 1.0 SW 19 33 10 18 1021.0 1021.4 0.2
19/07:30pm 6.5 2.2 5.3 92 0.5 WSW 17 26 9 14 1020.1 1020.4 0.2
19/07:00pm 7.0 3.4 5.2 88 0.8 SW 13 17 7 9 1019.0 1019.4 0.0
19/06:30pm 7.0 3.0 5.0 87 0.9 WNW 15 20 8 11 1018.3 1018.6 0.0
19/06:00pm 7.3 4.0 4.8 84 1.1 W 11 17 6 9 1018.0 1018.3 0.0
19/05:30pm 7.3 3.3 4.8 84 1.1 WSW 15 22 8 12 1018.0 1018.3 0.0
19/05:00pm 7.5 1.5 5.1 85 1.1 SW 26 41 14 22 1017.7 1018.0 0.0
19/04:45pm 8.3 2.0 5.6 83 1.3 SW 28 46 15 25 1017.6 1017.9 0.0
19/04:30pm 10.3 3.0 5.5 72 2.3 SW 33 43 18 23 1016.7 1017.0 0.0
19/04:00pm 11.8 7.1 5.2 64 3.1 W 19 33 10 18 1015.7 1016.0 0.0

Other Formats:

Comma delimited format used in spreadsheet applications
http://www.bom.gov.au/fwo/IDT60801/IDT60801.94960.axf

JavaScript Object Notation format (JSON) in row-major order
http://www.bom.gov.au/fwo/IDT60801/IDT60801.94960.json